sensor_id;sensor_type;location;lat;lon;timestamp;temperature;humidity
935;DHT22;454;53.254;10.400;2022-10-16T04:02:37;12.50;99.90
935;DHT22;454;53.254;10.400;2022-10-16T04:05:04;12.50;99.90
935;DHT22;454;53.254;10.400;2022-10-16T04:07:31;12.50;99.90
935;DHT22;454;53.254;10.400;2022-10-16T04:09:57;12.50;99.90
935;DHT22;454;53.254;10.400;2022-10-16T04:12:24;12.40;99.90
935;DHT22;454;53.254;10.400;2022-10-16T04:14:51;12.40;99.90
935;DHT22;454;53.254;10.400;2022-10-16T04:17:18;12.40;99.90
935;DHT22;454;53.254;10.400;2022-10-16T04:19:46;12.40;99.90
935;DHT22;454;53.254;10.400;2022-10-16T04:22:13;12.40;99.90
935;DHT22;454;53.254;10.400;2022-10-16T04:24:40;12.40;99.90
935;DHT22;454;53.254;10.400;2022-10-16T04:27:06;12.30;99.90
935;DHT22;454;53.254;10.400;2022-10-16T04:29:33;12.30;99.90
935;DHT22;454;53.254;10.400;2022-10-16T04:32:00;12.30;99.90
935;DHT22;454;53.254;10.400;2022-10-16T04:34:26;12.30;99.90
935;DHT22;454;53.254;10.400;2022-10-16T04:36:54;12.30;99.90
935;DHT22;454;53.254;10.400;2022-10-16T04:39:21;12.30;99.90
935;DHT22;454;53.254;10.400;2022-10-16T04:41:48;12.30;99.90
935;DHT22;454;53.254;10.400;2022-10-16T04:44:14;12.30;99.90
935;DHT22;454;53.254;10.400;2022-10-16T04:46:41;12.30;99.90
935;DHT22;454;53.254;10.400;2022-10-16T04:49:08;12.30;99.90
935;DHT22;454;53.254;10.400;2022-10-16T04:51:34;12.40;99.90
935;DHT22;454;53.254;10.400;2022-10-16T04:54:02;12.40;99.90
935;DHT22;454;53.254;10.400;2022-10-16T04:56:29;12.40;99.90
935;DHT22;454;53.254;10.400;2022-10-16T04:58:56;12.40;99.90
935;DHT22;454;53.254;10.400;2022-10-16T05:01:22;12.40;99.90
935;DHT22;454;53.254;10.400;2022-10-16T05:03:49;12.40;99.90
935;DHT22;454;53.254;10.400;2022-10-16T05:06:16;12.40;99.90
935;DHT22;454;53.254;10.400;2022-10-16T05:08:43;12.50;99.90
935;DHT22;454;53.254;10.400;2022-10-16T05:11:11;12.50;99.90
935;DHT22;454;53.254;10.400;2022-10-16T05:13:37;12.50;99.90
935;DHT22;454;53.254;10.400;2022-10-16T05:16:04;12.50;99.90
935;DHT22;454;53.254;10.400;2022-10-16T05:18:31;12.50;99.90
935;DHT22;454;53.254;10.400;2022-10-16T05:20:58;12.50;99.90
935;DHT22;454;53.254;10.400;2022-10-16T05:23:25;12.50;99.90
935;DHT22;454;53.254;10.400;2022-10-16T05:25:56;12.50;99.90
935;DHT22;454;53.254;10.400;2022-10-16T05:28:25;12.60;99.90
935;DHT22;454;53.254;10.400;2022-10-16T05:30:52;12.60;99.90
935;DHT22;454;53.254;10.400;2022-10-16T05:33:20;12.50;99.90
935;DHT22;454;53.254;10.400;2022-10-16T05:35:46;12.50;99.90
935;DHT22;454;53.254;10.400;2022-10-16T05:38:13;12.60;99.90
935;DHT22;454;53.254;10.400;2022-10-16T05:40:40;12.50;99.90
935;DHT22;454;53.254;10.400;2022-10-16T05:43:06;12.50;99.90
935;DHT22;454;53.254;10.400;2022-10-16T05:45:34;12.50;99.90
935;DHT22;454;53.254;10.400;2022-10-16T05:48:01;12.50;99.90
935;DHT22;454;53.254;10.400;2022-10-16T05:50:28;12.50;99.90
935;DHT22;454;53.254;10.400;2022-10-16T05:52:54;12.50;99.90
935;DHT22;454;53.254;10.400;2022-10-16T05:55:21;12.50;99.90
935;DHT22;454;53.254;10.400;2022-10-16T05:57:48;12.50;99.90
935;DHT22;454;53.254;10.400;2022-10-16T06:00:14;12.50;99.90
935;DHT22;454;53.254;10.400;2022-10-16T06:02:42;12.50;99.90
935;DHT22;454;53.254;10.400;2022-10-16T06:05:09;12.50;99.90
935;DHT22;454;53.254;10.400;2022-10-16T06:07:36;12.50;99.90
935;DHT22;454;53.254;10.400;2022-10-16T06:10:04;12.50;99.90
935;DHT22;454;53.254;10.400;2022-10-16T06:12:31;12.50;99.90
935;DHT22;454;53.254;10.400;2022-10-16T06:14:57;12.50;99.90
935;DHT22;454;53.254;10.400;2022-10-16T06:17:24;12.50;99.90
935;DHT22;454;53.254;10.400;2022-10-16T06:19:52;12.50;99.90
935;DHT22;454;53.254;10.400;2022-10-16T06:22:19;12.50;99.90
935;DHT22;454;53.254;10.400;2022-10-16T06:24:45;12.50;99.90
935;DHT22;454;53.254;10.400;2022-10-16T06:27:13;12.60;99.90
935;DHT22;454;53.254;10.400;2022-10-16T06:29:39;12.60;99.90
935;DHT22;454;53.254;10.400;2022-10-16T06:32:06;12.50;99.90
935;DHT22;454;53.254;10.400;2022-10-16T06:34:32;12.50;99.90
935;DHT22;454;53.254;10.400;2022-10-16T06:37:00;12.50;99.90
935;DHT22;454;53.254;10.400;2022-10-16T06:39:27;12.50;99.90
935;DHT22;454;53.254;10.400;2022-10-16T06:41:54;12.50;99.90
935;DHT22;454;53.254;10.400;2022-10-16T06:44:20;12.50;99.90
935;DHT22;454;53.254;10.400;2022-10-16T06:46:47;12.50;99.90
935;DHT22;454;53.254;10.400;2022-10-16T06:49:14;12.50;99.90
935;DHT22;454;53.254;10.400;2022-10-16T06:51:46;12.50;99.90
935;DHT22;454;53.254;10.400;2022-10-16T06:54:14;12.50;99.90
935;DHT22;454;53.254;10.400;2022-10-16T06:56:41;12.50;99.90
935;DHT22;454;53.254;10.400;2022-10-16T06:59:08;12.50;99.90
935;DHT22;454;53.254;10.400;2022-10-16T07:01:34;12.50;99.90
935;DHT22;454;53.254;10.400;2022-10-16T07:04:02;12.50;99.90
935;DHT22;454;53.254;10.400;2022-10-16T07:06:32;12.50;99.90
935;DHT22;454;53.254;10.400;2022-10-16T07:09:02;12.50;99.90
935;DHT22;454;53.254;10.400;2022-10-16T07:11:30;12.50;99.90
935;DHT22;454;53.254;10.400;2022-10-16T07:13:56;12.50;99.90
935;DHT22;454;53.254;10.400;2022-10-16T07:16:24;12.50;99.90
935;DHT22;454;53.254;10.400;2022-10-16T07:18:52;12.60;99.90
935;DHT22;454;53.254;10.400;2022-10-16T07:21:24;12.60;99.90
935;DHT22;454;53.254;10.400;2022-10-16T07:23:52;12.70;99.90
935;DHT22;454;53.254;10.400;2022-10-16T07:26:19;12.70;99.90
935;DHT22;454;53.254;10.400;2022-10-16T07:28:47;12.80;99.90
935;DHT22;454;53.254;10.400;2022-10-16T07:31:15;12.90;99.90
935;DHT22;454;53.254;10.400;2022-10-16T07:33:44;12.90;99.90
935;DHT22;454;53.254;10.400;2022-10-16T07:36:11;12.90;99.90
935;DHT22;454;53.254;10.400;2022-10-16T07:38:38;13.00;99.90
935;DHT22;454;53.254;10.400;2022-10-16T07:41:06;13.00;99.90
935;DHT22;454;53.254;10.400;2022-10-16T07:43:33;13.00;99.90
935;DHT22;454;53.254;10.400;2022-10-16T07:46:02;13.00;99.90
935;DHT22;454;53.254;10.400;2022-10-16T07:48:30;13.10;99.90
935;DHT22;454;53.254;10.400;2022-10-16T07:50:57;13.20;99.90
935;DHT22;454;53.254;10.400;2022-10-16T07:53:25;13.30;99.90
935;DHT22;454;53.254;10.400;2022-10-16T07:55:52;13.40;99.90
935;DHT22;454;53.254;10.400;2022-10-16T07:58:18;13.50;99.90
935;DHT22;454;53.254;10.400;2022-10-16T08:00:45;13.60;99.90
935;DHT22;454;53.254;10.400;2022-10-16T08:03:13;13.70;99.90
935;DHT22;454;53.254;10.400;2022-10-16T08:05:40;13.80;99.90
935;DHT22;454;53.254;10.400;2022-10-16T08:08:10;13.90;99.90
935;DHT22;454;53.254;10.400;2022-10-16T08:10:37;14.00;99.90
935;DHT22;454;53.254;10.400;2022-10-16T08:13:04;14.20;99.90
935;DHT22;454;53.254;10.400;2022-10-16T08:15:31;14.40;99.90
935;DHT22;454;53.254;10.400;2022-10-16T08:17:58;14.60;99.90
935;DHT22;454;53.254;10.400;2022-10-16T08:20:28;14.70;99.90
935;DHT22;454;53.254;10.400;2022-10-16T08:22:54;14.90;99.90
935;DHT22;454;53.254;10.400;2022-10-16T08:25:22;15.00;99.90
935;DHT22;454;53.254;10.400;2022-10-16T08:27:49;15.00;99.90
935;DHT22;454;53.254;10.400;2022-10-16T08:30:17;15.10;99.90
935;DHT22;454;53.254;10.400;2022-10-16T08:32:44;15.10;99.90
935;DHT22;454;53.254;10.400;2022-10-16T08:35:11;15.10;99.90
935;DHT22;454;53.254;10.400;2022-10-16T08:37:40;15.20;99.90
935;DHT22;454;53.254;10.400;2022-10-16T08:40:16;15.30;99.90
935;DHT22;454;53.254;10.400;2022-10-16T08:45:49;15.30;99.90
935;DHT22;454;53.254;10.400;2022-10-16T08:48:21;15.50;99.90
935;DHT22;454;53.254;10.400;2022-10-16T08:50:52;15.50;99.90
935;DHT22;454;53.254;10.400;2022-10-16T08:53:23;15.50;99.90
935;DHT22;454;53.254;10.400;2022-10-16T08:55:52;15.50;99.90
935;DHT22;454;53.254;10.400;2022-10-16T08:58:21;15.50;99.90
935;DHT22;454;53.254;10.400;2022-10-16T09:00:51;15.40;99.90
935;DHT22;454;53.254;10.400;2022-10-16T09:03:29;15.40;99.90
935;DHT22;454;53.254;10.400;2022-10-16T09:06:10;15.50;99.90
935;DHT22;454;53.254;10.400;2022-10-16T09:08:51;15.50;99.90
935;DHT22;454;53.254;10.400;2022-10-16T09:11:27;15.50;99.90
935;DHT22;454;53.254;10.400;2022-10-16T09:14:03;15.60;99.90
935;DHT22;454;53.254;10.400;2022-10-16T09:16:35;15.70;99.90
935;DHT22;454;53.254;10.400;2022-10-16T09:19:06;15.70;99.90
935;DHT22;454;53.254;10.400;2022-10-16T09:21:41;15.80;99.90
935;DHT22;454;53.254;10.400;2022-10-16T09:24:13;15.80;99.90
935;DHT22;454;53.254;10.400;2022-10-16T09:26:41;15.90;99.90
935;DHT22;454;53.254;10.400;2022-10-16T09:29:10;16.00;99.90
935;DHT22;454;53.254;10.400;2022-10-16T09:31:37;16.00;99.90
935;DHT22;454;53.254;10.400;2022-10-16T09:34:05;16.10;99.90
935;DHT22;454;53.254;10.400;2022-10-16T09:36:39;16.10;99.90
935;DHT22;454;53.254;10.400;2022-10-16T09:39:10;16.20;99.90
935;DHT22;454;53.254;10.400;2022-10-16T09:41:38;16.30;99.90
935;DHT22;454;53.254;10.400;2022-10-16T09:44:16;16.30;99.90
935;DHT22;454;53.254;10.400;2022-10-16T09:46:45;16.50;99.90
935;DHT22;454;53.254;10.400;2022-10-16T09:49:21;16.50;99.90
935;DHT22;454;53.254;10.400;2022-10-16T09:51:47;16.60;99.90
935;DHT22;454;53.254;10.400;2022-10-16T09:54:17;16.60;99.90
935;DHT22;454;53.254;10.400;2022-10-16T09:56:45;16.60;99.90
935;DHT22;454;53.254;10.400;2022-10-16T09:59:16;16.70;99.90
935;DHT22;454;53.254;10.400;2022-10-16T10:01:46;16.70;99.90
935;DHT22;454;53.254;10.400;2022-10-16T10:04:13;16.80;99.90
935;DHT22;454;53.254;10.400;2022-10-16T10:06:43;16.80;99.90
935;DHT22;454;53.254;10.400;2022-10-16T10:09:20;16.90;99.90
935;DHT22;454;53.254;10.400;2022-10-16T10:11:52;16.90;99.90
935;DHT22;454;53.254;10.400;2022-10-16T10:14:25;17.00;99.90
935;DHT22;454;53.254;10.400;2022-10-16T10:17:09;17.00;99.90
935;DHT22;454;53.254;10.400;2022-10-16T10:19:40;17.10;99.90
935;DHT22;454;53.254;10.400;2022-10-16T10:22:17;17.10;99.90
935;DHT22;454;53.254;10.400;2022-10-16T10:24:54;17.20;99.90
935;DHT22;454;53.254;10.400;2022-10-16T10:27:24;17.20;99.90
935;DHT22;454;53.254;10.400;2022-10-16T10:30:01;17.20;99.90
935;DHT22;454;53.254;10.400;2022-10-16T10:32:34;17.30;99.90
935;DHT22;454;53.254;10.400;2022-10-16T10:35:14;17.40;99.90
935;DHT22;454;53.254;10.400;2022-10-16T10:37:53;17.40;99.90
935;DHT22;454;53.254;10.400;2022-10-16T10:40:38;17.50;99.90
935;DHT22;454;53.254;10.400;2022-10-16T10:43:15;17.50;99.90
935;DHT22;454;53.254;10.400;2022-10-16T10:45:47;17.50;99.90
935;DHT22;454;53.254;10.400;2022-10-16T10:48:24;17.50;99.90
935;DHT22;454;53.254;10.400;2022-10-16T10:50:56;17.50;99.90
935;DHT22;454;53.254;10.400;2022-10-16T10:53:35;17.60;99.90
935;DHT22;454;53.254;10.400;2022-10-16T10:56:14;17.70;99.90
935;DHT22;454;53.254;10.400;2022-10-16T10:59:12;17.70;99.90
935;DHT22;454;53.254;10.400;2022-10-16T11:01:48;17.70;99.90
935;DHT22;454;53.254;10.400;2022-10-16T11:04:42;17.80;99.90
935;DHT22;454;53.254;10.400;2022-10-16T11:07:18;17.80;99.90
935;DHT22;454;53.254;10.400;2022-10-16T11:09:48;17.80;99.90
935;DHT22;454;53.254;10.400;2022-10-16T11:12:21;17.90;99.90
935;DHT22;454;53.254;10.400;2022-10-16T11:14:54;18.00;99.90
935;DHT22;454;53.254;10.400;2022-10-16T11:17:25;18.00;99.90
935;DHT22;454;53.254;10.400;2022-10-16T11:19:57;18.10;99.90
935;DHT22;454;53.254;10.400;2022-10-16T11:22:29;18.20;99.90
935;DHT22;454;53.254;10.400;2022-10-16T11:25:02;18.30;99.90
935;DHT22;454;53.254;10.400;2022-10-16T11:27:37;18.40;99.90
935;DHT22;454;53.254;10.400;2022-10-16T11:30:12;18.50;99.90
935;DHT22;454;53.254;10.400;2022-10-16T11:32:49;18.50;99.90
935;DHT22;454;53.254;10.400;2022-10-16T11:35:23;18.50;99.90
935;DHT22;454;53.254;10.400;2022-10-16T11:37:52;18.70;99.90
935;DHT22;454;53.254;10.400;2022-10-16T11:40:23;18.80;99.90
935;DHT22;454;53.254;10.400;2022-10-16T11:42:56;18.90;99.90
935;DHT22;454;53.254;10.400;2022-10-16T11:45:29;19.00;99.90
935;DHT22;454;53.254;10.400;2022-10-16T11:48:01;19.10;99.90
935;DHT22;454;53.254;10.400;2022-10-16T11:50:32;19.00;99.90
935;DHT22;454;53.254;10.400;2022-10-16T11:53:04;19.00;99.90
935;DHT22;454;53.254;10.400;2022-10-16T11:55:38;18.90;99.90
935;DHT22;454;53.254;10.400;2022-10-16T11:58:09;18.80;99.90
935;DHT22;454;53.254;10.400;2022-10-16T12:00:45;18.70;99.90
935;DHT22;454;53.254;10.400;2022-10-16T12:03:18;18.70;99.90
935;DHT22;454;53.254;10.400;2022-10-16T12:06:01;18.60;99.90
935;DHT22;454;53.254;10.400;2022-10-16T12:08:33;18.70;99.90
935;DHT22;454;53.254;10.400;2022-10-16T12:11:08;18.80;99.90
935;DHT22;454;53.254;10.400;2022-10-16T12:13:38;18.80;99.90
935;DHT22;454;53.254;10.400;2022-10-16T12:16:21;18.80;99.90
935;DHT22;454;53.254;10.400;2022-10-16T12:18:49;18.70;99.90
935;DHT22;454;53.254;10.400;2022-10-16T12:21:17;18.70;99.90
935;DHT22;454;53.254;10.400;2022-10-16T12:23:49;18.70;99.90
935;DHT22;454;53.254;10.400;2022-10-16T12:26:24;18.60;99.90
935;DHT22;454;53.254;10.400;2022-10-16T12:28:52;18.60;99.90
935;DHT22;454;53.254;10.400;2022-10-16T12:31:19;18.60;99.90
935;DHT22;454;53.254;10.400;2022-10-16T12:33:56;18.70;99.90
935;DHT22;454;53.254;10.400;2022-10-16T12:36:29;18.70;99.90
935;DHT22;454;53.254;10.400;2022-10-16T12:38:56;18.80;99.90
935;DHT22;454;53.254;10.400;2022-10-16T12:41:27;18.70;99.90
935;DHT22;454;53.254;10.400;2022-10-16T12:43:56;18.60;99.90
935;DHT22;454;53.254;10.400;2022-10-16T12:46:34;18.50;99.90
935;DHT22;454;53.254;10.400;2022-10-16T12:49:17;18.60;99.90
935;DHT22;454;53.254;10.400;2022-10-16T12:51:46;18.60;99.90
935;DHT22;454;53.254;10.400;2022-10-16T12:54:15;18.60;99.90
935;DHT22;454;53.254;10.400;2022-10-16T12:56:57;18.60;99.90
935;DHT22;454;53.254;10.400;2022-10-16T12:59:33;18.70;99.90
935;DHT22;454;53.254;10.400;2022-10-16T13:02:24;18.60;99.90
935;DHT22;454;53.254;10.400;2022-10-16T13:05:16;18.60;99.90
935;DHT22;454;53.254;10.400;2022-10-16T13:08:04;18.50;99.90
935;DHT22;454;53.254;10.400;2022-10-16T13:10:37;18.50;99.90
935;DHT22;454;53.254;10.400;2022-10-16T13:13:36;18.30;99.90
935;DHT22;454;53.254;10.400;2022-10-16T13:16:17;18.30;99.90
935;DHT22;454;53.254;10.400;2022-10-16T13:18:56;18.30;99.90
935;DHT22;454;53.254;10.400;2022-10-16T13:21:33;18.20;99.90
935;DHT22;454;53.254;10.400;2022-10-16T13:24:12;18.10;99.90
935;DHT22;454;53.254;10.400;2022-10-16T13:26:44;18.10;99.90
935;DHT22;454;53.254;10.400;2022-10-16T13:29:12;18.10;99.90
935;DHT22;454;53.254;10.400;2022-10-16T13:31:43;18.20;99.90
935;DHT22;454;53.254;10.400;2022-10-16T13:34:13;18.30;99.90
935;DHT22;454;53.254;10.400;2022-10-16T13:36:44;18.40;99.90
935;DHT22;454;53.254;10.400;2022-10-16T13:39:13;18.40;99.90
935;DHT22;454;53.254;10.400;2022-10-16T13:41:40;18.50;99.90
935;DHT22;454;53.254;10.400;2022-10-16T13:44:13;18.50;99.90
935;DHT22;454;53.254;10.400;2022-10-16T13:46:42;18.40;99.90
935;DHT22;454;53.254;10.400;2022-10-16T13:49:14;18.30;99.90
935;DHT22;454;53.254;10.400;2022-10-16T13:51:41;18.20;99.90
935;DHT22;454;53.254;10.400;2022-10-16T13:54:09;18.20;99.90
935;DHT22;454;53.254;10.400;2022-10-16T13:56:39;18.20;99.90
935;DHT22;454;53.254;10.400;2022-10-16T13:59:07;18.30;99.90
935;DHT22;454;53.254;10.400;2022-10-16T14:01:51;18.40;99.90
935;DHT22;454;53.254;10.400;2022-10-16T14:04:19;18.50;99.90
935;DHT22;454;53.254;10.400;2022-10-16T14:06:49;18.60;99.90
935;DHT22;454;53.254;10.400;2022-10-16T14:09:22;18.70;99.90
935;DHT22;454;53.254;10.400;2022-10-16T14:11:50;18.90;99.90
935;DHT22;454;53.254;10.400;2022-10-16T14:14:18;19.00;99.90
935;DHT22;454;53.254;10.400;2022-10-16T14:16:46;18.90;99.90
935;DHT22;454;53.254;10.400;2022-10-16T14:19:19;18.90;99.90
935;DHT22;454;53.254;10.400;2022-10-16T14:21:47;18.80;99.90
935;DHT22;454;53.254;10.400;2022-10-16T14:24:24;18.70;99.90
935;DHT22;454;53.254;10.400;2022-10-16T14:26:52;18.70;99.90
935;DHT22;454;53.254;10.400;2022-10-16T14:29:20;18.60;99.90
935;DHT22;454;53.254;10.400;2022-10-16T14:31:54;18.50;99.90
935;DHT22;454;53.254;10.400;2022-10-16T14:34:28;18.50;99.90
935;DHT22;454;53.254;10.400;2022-10-16T14:36:56;18.50;99.90
935;DHT22;454;53.254;10.400;2022-10-16T14:39:25;18.50;99.90
935;DHT22;454;53.254;10.400;2022-10-16T14:41:56;18.50;99.90
935;DHT22;454;53.254;10.400;2022-10-16T14:44:27;18.50;99.90
935;DHT22;454;53.254;10.400;2022-10-16T14:46:54;18.50;99.90
935;DHT22;454;53.254;10.400;2022-10-16T14:49:22;18.40;99.90
935;DHT22;454;53.254;10.400;2022-10-16T14:51:51;18.30;99.90
935;DHT22;454;53.254;10.400;2022-10-16T14:54:18;18.20;99.90
935;DHT22;454;53.254;10.400;2022-10-16T14:56:48;18.20;99.90
935;DHT22;454;53.254;10.400;2022-10-16T14:59:18;18.10;99.90
935;DHT22;454;53.254;10.400;2022-10-16T15:01:46;18.10;99.90
935;DHT22;454;53.254;10.400;2022-10-16T15:04:13;18.00;99.90
935;DHT22;454;53.254;10.400;2022-10-16T15:06:41;18.00;99.90
935;DHT22;454;53.254;10.400;2022-10-16T15:09:09;18.00;99.90
935;DHT22;454;53.254;10.400;2022-10-16T15:11:36;17.90;99.90
935;DHT22;454;53.254;10.400;2022-10-16T15:14:03;17.80;99.90
935;DHT22;454;53.254;10.400;2022-10-16T15:16:30;17.80;99.90
935;DHT22;454;53.254;10.400;2022-10-16T15:18:57;17.70;99.90
935;DHT22;454;53.254;10.400;2022-10-16T15:21:25;17.70;99.90
935;DHT22;454;53.254;10.400;2022-10-16T15:23:53;17.60;99.90
935;DHT22;454;53.254;10.400;2022-10-16T15:26:21;17.50;99.90
935;DHT22;454;53.254;10.400;2022-10-16T15:28:48;17.50;99.90
935;DHT22;454;53.254;10.400;2022-10-16T15:31:15;17.40;99.90
935;DHT22;454;53.254;10.400;2022-10-16T15:33:41;17.40;99.90
935;DHT22;454;53.254;10.400;2022-10-16T15:36:08;17.30;99.90
935;DHT22;454;53.254;10.400;2022-10-16T15:38:35;17.20;99.90
935;DHT22;454;53.254;10.400;2022-10-16T15:41:02;17.20;99.90
935;DHT22;454;53.254;10.400;2022-10-16T15:43:30;17.10;99.90
935;DHT22;454;53.254;10.400;2022-10-16T15:46:01;17.00;99.90
935;DHT22;454;53.254;10.400;2022-10-16T15:48:29;17.00;99.90
935;DHT22;454;53.254;10.400;2022-10-16T15:50:55;16.90;99.90
935;DHT22;454;53.254;10.400;2022-10-16T15:53:22;16.80;99.90
935;DHT22;454;53.254;10.400;2022-10-16T15:55:49;16.70;99.90
935;DHT22;454;53.254;10.400;2022-10-16T15:58:16;16.60;99.90
935;DHT22;454;53.254;10.400;2022-10-16T16:00:44;16.50;99.90
935;DHT22;454;53.254;10.400;2022-10-16T16:03:11;16.50;99.90
935;DHT22;454;53.254;10.400;2022-10-16T16:05:38;16.40;99.90
935;DHT22;454;53.254;10.400;2022-10-16T16:08:05;16.30;99.90
935;DHT22;454;53.254;10.400;2022-10-16T16:10:41;16.20;99.90
935;DHT22;454;53.254;10.400;2022-10-16T16:13:08;16.20;99.90
935;DHT22;454;53.254;10.400;2022-10-16T16:15:38;16.10;99.90
935;DHT22;454;53.254;10.400;2022-10-16T16:18:06;16.00;99.90
935;DHT22;454;53.254;10.400;2022-10-16T16:20:34;15.90;99.90
935;DHT22;454;53.254;10.400;2022-10-16T16:23:01;15.80;99.90
935;DHT22;454;53.254;10.400;2022-10-16T16:25:29;15.70;99.90
935;DHT22;454;53.254;10.400;2022-10-16T16:27:56;15.60;99.90
935;DHT22;454;53.254;10.400;2022-10-16T16:30:23;15.50;99.90
935;DHT22;454;53.254;10.400;2022-10-16T16:32:49;15.40;99.90
935;DHT22;454;53.254;10.400;2022-10-16T16:35:17;15.30;99.90
935;DHT22;454;53.254;10.400;2022-10-16T16:37:44;15.20;99.90
935;DHT22;454;53.254;10.400;2022-10-16T16:40:11;15.10;99.90
935;DHT22;454;53.254;10.400;2022-10-16T16:42:38;15.10;99.90
935;DHT22;454;53.254;10.400;2022-10-16T16:45:05;15.00;99.90
935;DHT22;454;53.254;10.400;2022-10-16T16:47:32;14.90;99.90
935;DHT22;454;53.254;10.400;2022-10-16T16:49:59;14.80;99.90
935;DHT22;454;53.254;10.400;2022-10-16T16:52:31;14.70;99.90
935;DHT22;454;53.254;10.400;2022-10-16T16:54:58;14.70;99.90
935;DHT22;454;53.254;10.400;2022-10-16T16:57:24;14.60;99.90
935;DHT22;454;53.254;10.400;2022-10-16T16:59:51;14.50;99.90
935;DHT22;454;53.254;10.400;2022-10-16T17:02:18;14.40;99.90
935;DHT22;454;53.254;10.400;2022-10-16T17:04:45;14.40;99.90
935;DHT22;454;53.254;10.400;2022-10-16T17:07:11;14.30;99.90
935;DHT22;454;53.254;10.400;2022-10-16T17:09:39;14.20;99.90
935;DHT22;454;53.254;10.400;2022-10-16T17:12:06;14.20;99.90
935;DHT22;454;53.254;10.400;2022-10-16T17:14:33;14.10;99.90
935;DHT22;454;53.254;10.400;2022-10-16T17:16:59;14.00;99.90
935;DHT22;454;53.254;10.400;2022-10-16T17:19:26;14.00;99.90
935;DHT22;454;53.254;10.400;2022-10-16T17:21:53;13.90;99.90
935;DHT22;454;53.254;10.400;2022-10-16T17:24:19;13.80;99.90
935;DHT22;454;53.254;10.400;2022-10-16T17:26:48;13.80;99.90
935;DHT22;454;53.254;10.400;2022-10-16T17:29:16;13.70;99.90
935;DHT22;454;53.254;10.400;2022-10-16T17:31:43;13.60;99.90
935;DHT22;454;53.254;10.400;2022-10-16T17:34:10;13.60;99.90
935;DHT22;454;53.254;10.400;2022-10-16T17:36:39;13.50;99.90
935;DHT22;454;53.254;10.400;2022-10-16T17:39:10;13.50;99.90
935;DHT22;454;53.254;10.400;2022-10-16T17:41:38;13.40;99.90
935;DHT22;454;53.254;10.400;2022-10-16T17:44:06;13.40;99.90
935;DHT22;454;53.254;10.400;2022-10-16T17:46:34;13.30;99.90
935;DHT22;454;53.254;10.400;2022-10-16T17:49:01;13.30;99.90
935;DHT22;454;53.254;10.400;2022-10-16T17:51:29;13.20;99.90
935;DHT22;454;53.254;10.400;2022-10-16T17:53:58;13.20;99.90
935;DHT22;454;53.254;10.400;2022-10-16T17:56:26;13.10;99.90
935;DHT22;454;53.254;10.400;2022-10-16T17:58:53;13.10;99.90
935;DHT22;454;53.254;10.400;2022-10-16T18:01:24;13.00;99.90
935;DHT22;454;53.254;10.400;2022-10-16T18:03:52;13.00;99.90
935;DHT22;454;53.254;10.400;2022-10-16T18:06:19;13.00;99.90
935;DHT22;454;53.254;10.400;2022-10-16T18:08:46;12.90;99.90
935;DHT22;454;53.254;10.400;2022-10-16T18:11:13;12.90;99.90
935;DHT22;454;53.254;10.400;2022-10-16T18:13:40;12.80;99.90
935;DHT22;454;53.254;10.400;2022-10-16T18:16:09;12.80;99.90
935;DHT22;454;53.254;10.400;2022-10-16T18:18:38;12.70;99.90
935;DHT22;454;53.254;10.400;2022-10-16T18:21:07;12.70;99.90
935;DHT22;454;53.254;10.400;2022-10-16T18:23:35;12.60;99.90
935;DHT22;454;53.254;10.400;2022-10-16T18:26:02;12.70;99.90
935;DHT22;454;53.254;10.400;2022-10-16T18:28:29;12.60;99.90
935;DHT22;454;53.254;10.400;2022-10-16T18:30:57;12.60;99.90
935;DHT22;454;53.254;10.400;2022-10-16T18:33:24;12.60;99.90
935;DHT22;454;53.254;10.400;2022-10-16T18:35:53;12.50;99.90
935;DHT22;454;53.254;10.400;2022-10-16T18:38:19;12.50;99.90
935;DHT22;454;53.254;10.400;2022-10-16T18:40:46;12.50;99.90
935;DHT22;454;53.254;10.400;2022-10-16T18:43:13;12.50;99.90
935;DHT22;454;53.254;10.400;2022-10-16T18:45:39;12.40;99.90
935;DHT22;454;53.254;10.400;2022-10-16T18:48:06;12.40;99.90
935;DHT22;454;53.254;10.400;2022-10-16T18:50:33;12.40;99.90
935;DHT22;454;53.254;10.400;2022-10-16T18:53:02;12.30;99.90
935;DHT22;454;53.254;10.400;2022-10-16T18:55:29;12.40;99.90
935;DHT22;454;53.254;10.400;2022-10-16T18:57:59;12.30;99.90
935;DHT22;454;53.254;10.400;2022-10-16T19:00:25;12.30;99.90
935;DHT22;454;53.254;10.400;2022-10-16T19:02:52;12.30;99.90
935;DHT22;454;53.254;10.400;2022-10-16T19:05:19;12.20;99.90
935;DHT22;454;53.254;10.400;2022-10-16T19:07:46;12.20;99.90
935;DHT22;454;53.254;10.400;2022-10-16T19:10:14;12.20;99.90
935;DHT22;454;53.254;10.400;2022-10-16T19:12:41;12.20;99.90
935;DHT22;454;53.254;10.400;2022-10-16T19:15:09;12.20;99.90
935;DHT22;454;53.254;10.400;2022-10-16T19:17:36;12.20;99.90
935;DHT22;454;53.254;10.400;2022-10-16T19:20:04;12.20;99.90
935;DHT22;454;53.254;10.400;2022-10-16T19:22:32;12.10;99.90
935;DHT22;454;53.254;10.400;2022-10-16T19:25:18;12.20;99.90
935;DHT22;454;53.254;10.400;2022-10-16T19:27:47;12.10;99.90
935;DHT22;454;53.254;10.400;2022-10-16T19:30:13;12.10;99.90
935;DHT22;454;53.254;10.400;2022-10-16T19:32:40;12.20;99.90
935;DHT22;454;53.254;10.400;2022-10-16T19:35:07;12.20;99.90
935;DHT22;454;53.254;10.400;2022-10-16T19:37:34;12.20;99.90
935;DHT22;454;53.254;10.400;2022-10-16T19:40:02;12.20;99.90
935;DHT22;454;53.254;10.400;2022-10-16T19:42:31;12.10;99.90
935;DHT22;454;53.254;10.400;2022-10-16T19:44:57;12.10;99.90
935;DHT22;454;53.254;10.400;2022-10-16T19:47:24;12.10;99.90
935;DHT22;454;53.254;10.400;2022-10-16T19:49:51;12.00;99.90
935;DHT22;454;53.254;10.400;2022-10-16T19:52:17;12.00;99.90
935;DHT22;454;53.254;10.400;2022-10-16T19:54:46;12.00;99.90
935;DHT22;454;53.254;10.400;2022-10-16T19:57:13;12.00;99.90
935;DHT22;454;53.254;10.400;2022-10-16T19:59:41;11.90;99.90
935;DHT22;454;53.254;10.400;2022-10-16T20:02:09;11.90;99.90
935;DHT22;454;53.254;10.400;2022-10-16T20:04:36;11.90;99.90
935;DHT22;454;53.254;10.400;2022-10-16T20:07:03;11.90;99.90
935;DHT22;454;53.254;10.400;2022-10-16T20:09:31;11.90;99.90
935;DHT22;454;53.254;10.400;2022-10-16T20:11:58;11.90;99.90
935;DHT22;454;53.254;10.400;2022-10-16T20:14:25;11.90;99.90
935;DHT22;454;53.254;10.400;2022-10-16T20:16:54;11.80;99.90
935;DHT22;454;53.254;10.400;2022-10-16T20:19:21;11.80;99.90
935;DHT22;454;53.254;10.400;2022-10-16T20:21:48;11.90;99.90
935;DHT22;454;53.254;10.400;2022-10-16T20:24:15;11.90;99.90
935;DHT22;454;53.254;10.400;2022-10-16T20:26:43;11.90;99.90
935;DHT22;454;53.254;10.400;2022-10-16T20:29:09;11.90;99.90
935;DHT22;454;53.254;10.400;2022-10-16T20:31:36;11.90;99.90
935;DHT22;454;53.254;10.400;2022-10-16T20:34:07;11.90;99.90
935;DHT22;454;53.254;10.400;2022-10-16T20:36:34;11.90;99.90